createdAt,value
2019-01-02T00:02:14.014Z,6.33
2019-01-02T00:05:01.297Z,7.25
2019-01-02T00:07:50.169Z,6.83
2019-01-02T00:10:38.047Z,7.22
2019-01-02T00:13:18.323Z,7.72
2019-01-02T00:16:05.600Z,8.10
2019-01-02T00:19:08.563Z,4.72
2019-01-02T00:21:56.754Z,3.92
2019-01-02T00:24:58.831Z,5.00
2019-01-02T00:27:46.045Z,7.42
2019-01-02T00:30:26.634Z,6.47
2019-01-02T00:33:14.515Z,6.22
2019-01-02T00:35:55.077Z,5.95
2019-01-02T00:38:42.810Z,7.42
2019-01-02T00:41:45.206Z,9.80
2019-01-02T00:44:32.928Z,3.02
2019-01-02T00:47:13.675Z,4.85
2019-01-02T00:49:54.482Z,6.12
2019-01-02T00:52:35.901Z,9.20
2019-01-02T00:55:23.069Z,7.55
2019-01-02T00:58:03.956Z,6.20
2019-01-02T01:00:45.009Z,7.20
2019-01-02T01:03:25.245Z,6.10
2019-01-02T01:06:12.920Z,6.62
2019-01-02T01:08:51.384Z,9.68
2019-01-02T01:11:39.537Z,10.95
2019-01-02T01:14:28.434Z,7.78
2019-01-02T01:17:15.802Z,7.90
2019-01-02T01:19:56.168Z,11.35
2019-01-02T01:22:43.808Z,11.75
2019-01-02T01:25:24.551Z,9.63
2019-01-02T01:28:12.139Z,7.28
2019-01-02T01:30:52.674Z,7.78
2019-01-02T01:33:40.509Z,12.53
2019-01-02T01:36:42.591Z,11.70
2019-01-02T01:39:23.628Z,5.70
2019-01-02T01:42:03.648Z,10.95
2019-01-02T01:44:43.917Z,6.03
2019-01-02T01:47:31.606Z,13.00
2019-01-02T01:50:20.045Z,12.35
2019-01-02T01:53:07.426Z,7.67
2019-01-02T01:55:35.217Z,11.57
2019-01-02T01:58:02.796Z,8.53
2019-01-02T02:00:30.895Z,11.40
2019-01-02T02:02:58.692Z,7.92
2019-01-02T02:05:26.868Z,9.08
2019-01-02T02:07:54.384Z,10.85
2019-01-02T02:10:22.453Z,10.08
2019-01-02T02:12:50.201Z,11.18
2019-01-02T02:15:17.999Z,6.72
2019-01-02T02:17:46.414Z,10.45
2019-01-02T02:20:14.247Z,10.58
2019-01-02T02:22:41.947Z,7.08
2019-01-02T02:25:13.785Z,10.23
2019-01-02T02:27:41.924Z,10.08
2019-01-02T02:30:11.773Z,6.78
2019-01-02T02:32:40.842Z,12.68
2019-01-02T02:35:09.264Z,10.32
2019-01-02T02:37:37.380Z,10.23
2019-01-02T02:40:06.752Z,8.90
2019-01-02T02:42:34.548Z,4.75
2019-01-02T02:45:03.094Z,7.20
2019-01-02T02:47:31.057Z,9.58
2019-01-02T02:49:59.050Z,10.08
2019-01-02T02:52:26.831Z,11.53
2019-01-02T02:54:55.311Z,12.68
2019-01-02T02:57:23.383Z,9.88
2019-01-02T02:59:51.608Z,9.38
2019-01-02T03:02:19.356Z,7.00
2019-01-02T03:04:47.032Z,7.83
2019-01-02T03:07:15.099Z,11.10
2019-01-02T03:09:43.140Z,8.73
2019-01-02T03:12:11.895Z,10.93
2019-01-02T03:14:39.639Z,8.55
2019-01-02T03:17:07.399Z,11.43
2019-01-02T03:19:36.024Z,10.72
2019-01-02T03:22:04.189Z,7.35
2019-01-02T03:24:32.676Z,8.63
2019-01-02T03:27:01.828Z,6.62
2019-01-02T03:29:29.544Z,9.23
2019-01-02T03:31:57.849Z,8.58
2019-01-02T03:34:26.308Z,14.25
2019-01-02T03:36:53.958Z,11.53
2019-01-02T03:39:22.042Z,8.65
2019-01-02T03:41:50.204Z,9.58
2019-01-02T03:44:18.377Z,9.65
2019-01-02T03:46:46.184Z,7.92
2019-01-02T03:49:14.289Z,9.45
2019-01-02T03:51:41.875Z,10.20
2019-01-02T03:54:09.691Z,10.03
2019-01-02T03:56:37.495Z,13.90
2019-01-02T03:59:05.183Z,8.93
2019-01-02T04:01:32.954Z,6.50
2019-01-02T04:04:00.759Z,4.17
2019-01-02T04:06:28.522Z,6.22
2019-01-02T04:08:56.377Z,9.85
2019-01-02T04:11:24.076Z,5.25
2019-01-02T04:13:52.677Z,8.05
2019-01-02T04:16:21.861Z,8.70
2019-01-02T04:18:49.834Z,6.58
2019-01-02T04:21:17.695Z,9.95
2019-01-02T04:23:45.770Z,9.28
2019-01-02T04:26:13.947Z,8.43
2019-01-02T04:28:41.962Z,12.35
2019-01-02T04:31:09.657Z,11.78
2019-01-02T04:33:37.418Z,14.68
2019-01-02T04:36:05.639Z,13.93
2019-01-02T04:38:33.388Z,10.85
2019-01-02T04:41:01.573Z,12.68
2019-01-02T04:43:30.131Z,9.53
2019-01-02T04:45:57.608Z,12.63
2019-01-02T04:48:25.292Z,10.23
2019-01-02T04:50:52.990Z,9.43
2019-01-02T04:53:20.556Z,13.10
2019-01-02T04:55:48.047Z,15.60
2019-01-02T04:58:16.114Z,11.12
2019-01-02T05:00:43.709Z,12.80
2019-01-02T05:03:11.286Z,9.03
2019-01-02T05:05:39.085Z,12.18
2019-01-02T05:08:07.256Z,13.25
2019-01-02T05:10:34.788Z,8.00
2019-01-02T05:13:02.774Z,10.90
2019-01-02T05:15:30.584Z,8.28
2019-01-02T05:17:58.478Z,10.48
2019-01-02T05:20:26.068Z,9.38
2019-01-02T05:22:53.915Z,7.60
2019-01-02T05:25:21.511Z,14.47
2019-01-02T05:27:49.295Z,9.13
2019-01-02T05:30:18.412Z,11.60
2019-01-02T05:32:46.628Z,12.03
2019-01-02T05:35:14.800Z,7.92
2019-01-02T05:37:42.774Z,9.33
2019-01-02T05:40:19.510Z,7.97
2019-01-02T05:42:47.177Z,11.30
2019-01-02T05:45:14.996Z,11.90
2019-01-02T05:47:42.757Z,11.45
2019-01-02T05:50:10.326Z,9.88
2019-01-02T05:52:38.032Z,11.25
2019-01-02T05:55:05.929Z,9.63
2019-01-02T05:57:33.623Z,12.63
2019-01-02T06:00:01.292Z,7.42
2019-01-02T06:02:28.901Z,13.85
2019-01-02T06:04:56.852Z,12.33
2019-01-02T06:07:24.572Z,8.63
2019-01-02T06:09:52.374Z,10.48
2019-01-02T06:12:20.080Z,13.55
2019-01-02T06:14:48.134Z,10.43
2019-01-02T06:17:15.858Z,11.60
2019-01-02T06:19:43.500Z,11.93
2019-01-02T06:22:11.349Z,19.57
2019-01-02T06:24:38.933Z,11.00
2019-01-02T06:27:07.645Z,11.60
2019-01-02T06:29:35.322Z,8.65
2019-01-02T06:32:03.224Z,10.93
2019-01-02T06:34:30.901Z,12.93
2019-01-02T06:36:58.614Z,11.60
2019-01-02T06:39:26.300Z,10.72
2019-01-02T06:41:54.017Z,13.95
2019-01-02T06:44:21.780Z,9.13
2019-01-02T06:46:49.493Z,10.15
2019-01-02T06:49:17.108Z,8.35
2019-01-02T06:51:45.247Z,10.50
2019-01-02T06:54:12.799Z,6.45
2019-01-02T06:56:40.467Z,14.65
2019-01-02T06:59:08.354Z,9.23
2019-01-02T07:01:36.225Z,8.60
2019-01-02T07:04:03.949Z,13.85
2019-01-02T07:06:31.771Z,14.83
2019-01-02T07:08:59.594Z,8.58
2019-01-02T07:11:27.523Z,7.45
2019-01-02T07:13:55.143Z,12.65
2019-01-02T07:16:23.112Z,13.05
2019-01-02T07:18:50.786Z,15.58
2019-01-02T07:21:18.555Z,9.65
2019-01-02T07:23:46.540Z,12.75
2019-01-02T07:26:15.031Z,8.78
2019-01-02T07:28:42.785Z,8.85
2019-01-02T07:31:10.886Z,10.75
2019-01-02T07:34:07.197Z,9.98
2019-01-02T07:37:23.231Z,9.33
2019-01-02T07:40:49.831Z,10.63
2019-01-02T07:44:11.351Z,9.93
2019-01-02T07:47:38.852Z,11.12
2019-01-02T07:51:24.723Z,8.88
2019-01-02T07:55:12.157Z,8.28
2019-01-02T07:58:38.502Z,6.45
2019-01-02T08:01:38.536Z,7.17
2019-01-02T08:05:04.914Z,11.60
2019-01-02T08:08:04.822Z,11.33
2019-01-02T08:11:31.181Z,6.22
2019-01-02T08:14:34.778Z,9.43
2019-01-02T08:18:01.123Z,7.85
2019-01-02T08:20:50.009Z,10.30
2019-01-02T08:24:16.353Z,8.95
2019-01-02T08:27:16.805Z,9.25
2019-01-02T08:30:43.171Z,6.40
2019-01-02T08:33:43.061Z,12.00
2019-01-02T08:36:43.239Z,13.98
2019-01-02T08:40:09.662Z,12.68
2019-01-02T08:43:00.924Z,7.60
2019-01-02T08:46:27.521Z,10.70
2019-01-02T08:49:13.808Z,8.73
2019-01-02T08:52:13.833Z,11.83
2019-01-02T08:55:36.463Z,13.10
2019-01-02T08:58:36.438Z,10.00
2019-01-02T09:01:46.831Z,9.93
2019-01-02T09:04:33.648Z,7.72
2019-01-02T09:07:34.001Z,6.37
2019-01-02T09:11:00.635Z,6.85
2019-01-02T09:13:49.951Z,9.30
2019-01-02T09:17:16.307Z,12.40
2019-01-02T09:20:16.267Z,9.03
2019-01-02T09:23:27.737Z,6.72
2019-01-02T09:26:12.761Z,10.60
2019-01-02T09:29:26.254Z,10.50
2019-01-02T09:32:32.552Z,8.95
2019-01-02T09:35:58.897Z,11.25
2019-01-02T09:38:47.555Z,12.63
2019-01-02T09:42:14.270Z,8.95
2019-01-02T09:45:14.413Z,9.25
2019-01-02T09:48:30.522Z,6.05
2019-01-02T09:51:30.080Z,8.38
2019-01-02T09:54:44.212Z,8.00
2019-01-02T09:57:43.874Z,7.47
2019-01-02T10:04:22.285Z,8.98
2019-01-02T10:07:28.469Z,7.22
2019-01-02T10:10:57.011Z,5.58
2019-01-02T10:13:50.160Z,6.30
2019-01-02T10:20:53.489Z,10.03
2019-01-02T10:24:00.057Z,8.48
2019-01-02T10:27:00.302Z,6.03
2019-01-02T10:29:53.141Z,5.67
2019-01-02T10:33:19.488Z,5.50
2019-01-02T10:36:19.828Z,7.10
2019-01-02T10:39:19.996Z,7.97
2019-01-02T10:42:46.482Z,3.50
2019-01-02T10:45:32.091Z,7.08
2019-01-02T10:48:58.768Z,6.17
2019-01-02T10:51:58.201Z,10.05
2019-01-02T10:55:24.587Z,4.30
2019-01-02T10:58:24.752Z,11.28
2019-01-02T11:01:51.057Z,5.15
2019-01-02T11:04:54.508Z,5.72
2019-01-02T11:08:21.136Z,6.72
2019-01-02T11:11:17.025Z,4.28
2019-01-02T11:14:43.745Z,4.78
2019-01-02T11:17:44.055Z,5.60
2019-01-02T11:21:10.450Z,7.40
2019-01-02T11:24:10.686Z,3.58
2019-01-02T11:27:37.051Z,5.55
2019-01-02T11:30:37.169Z,6.15
2019-01-02T11:34:03.503Z,9.68
2019-01-02T11:37:04.201Z,7.78
2019-01-02T11:40:30.851Z,5.70
2019-01-02T11:43:30.840Z,6.65
2019-01-02T11:46:18.181Z,7.50
2019-01-02T11:48:58.729Z,4.62
2019-01-02T11:51:46.370Z,4.40
2019-01-02T11:54:27.272Z,6.37
2019-01-02T11:57:15.248Z,5.08
2019-01-02T11:59:55.660Z,5.25
2019-01-02T12:06:10.119Z,6.10
2019-01-02T12:08:51.040Z,5.40
2019-01-02T12:11:31.176Z,4.25
2019-01-02T12:14:18.571Z,4.40
2019-01-02T12:16:59.505Z,3.87
2019-01-02T12:19:46.829Z,3.65
2019-01-02T12:22:27.407Z,5.37
2019-01-02T12:25:07.656Z,3.77
2019-01-02T12:27:55.016Z,4.80
2019-01-02T12:30:35.493Z,6.30
2019-01-02T12:33:22.890Z,3.05
2019-01-02T12:36:03.616Z,3.27
2019-01-02T12:38:50.836Z,3.00
2019-01-02T12:41:31.720Z,3.77
2019-01-02T12:44:19.023Z,4.28
2019-01-02T12:46:59.169Z,2.08
2019-01-02T12:49:39.633Z,5.87
2019-01-02T12:52:19.963Z,3.60
2019-01-02T12:55:07.286Z,3.95
2019-01-02T12:57:47.824Z,2.75
2019-01-02T13:00:30.732Z,6.65
2019-01-02T13:03:57.106Z,7.12
2019-01-02T13:06:56.921Z,4.85
2019-01-02T13:10:06.216Z,6.12
2019-01-02T13:13:06.566Z,7.70
2019-01-02T13:16:32.935Z,3.47
2019-01-02T13:19:39.291Z,6.67
2019-01-02T13:23:05.924Z,8.25
2019-01-02T13:25:48.398Z,4.15
2019-01-02T13:29:01.917Z,5.22
2019-01-02T13:31:53.557Z,3.47
2019-01-02T13:35:19.916Z,4.47
2019-01-02T13:38:19.768Z,6.90
2019-01-02T13:41:46.141Z,4.50
2019-01-02T13:44:49.505Z,3.70
2019-01-02T13:48:18.654Z,4.28
2019-01-02T13:51:18.985Z,3.80
2019-01-02T13:54:06.269Z,4.00
2019-01-02T13:56:47.064Z,4.17
2019-01-02T13:59:34.675Z,5.42
2019-01-02T14:02:15.159Z,3.90
2019-01-02T14:05:03.732Z,5.15
2019-01-02T14:07:46.658Z,5.55
2019-01-02T14:10:34.446Z,5.05
2019-01-02T14:13:14.999Z,4.03
2019-01-02T14:16:02.302Z,3.42
2019-01-02T14:18:45.394Z,6.67
2019-01-02T14:21:33.017Z,5.42
2019-01-02T14:24:13.521Z,7.47
2019-01-02T14:27:00.856Z,4.60
2019-01-02T14:29:41.544Z,4.87
2019-01-02T14:32:09.758Z,2.27
2019-01-02T14:34:37.566Z,6.33
2019-01-02T14:37:05.834Z,4.40
2019-01-02T14:39:33.298Z,2.60
2019-01-02T14:42:01.132Z,3.65
2019-01-02T14:44:28.812Z,5.53
2019-01-02T14:46:56.785Z,3.47
2019-01-02T14:49:24.500Z,3.67
2019-01-02T14:51:52.212Z,2.47
2019-01-02T14:54:19.776Z,4.60
2019-01-02T14:56:47.591Z,5.45
2019-01-02T14:59:15.071Z,1.65
2019-01-02T15:01:42.891Z,4.55
2019-01-02T15:04:10.388Z,4.28
2019-01-02T15:06:38.583Z,3.98
2019-01-02T15:09:07.984Z,3.85
2019-01-02T15:11:36.159Z,3.15
2019-01-02T15:14:03.934Z,3.27
2019-01-02T15:16:31.748Z,3.17
2019-01-02T15:18:59.860Z,4.30
2019-01-02T15:21:27.458Z,2.52
2019-01-02T15:23:55.147Z,6.10
2019-01-02T15:26:22.793Z,4.10
2019-01-02T15:28:50.367Z,2.58
2019-01-02T15:31:18.368Z,3.42
2019-01-02T15:33:46.176Z,5.75
2019-01-02T15:36:13.965Z,3.55
2019-01-02T15:38:41.741Z,4.42
2019-01-02T15:41:09.574Z,4.05
2019-01-02T15:43:37.032Z,4.85
2019-01-02T15:46:04.626Z,7.28
2019-01-02T15:48:32.491Z,3.12
2019-01-02T15:51:00.212Z,4.40
2019-01-02T15:53:27.875Z,4.22
2019-01-02T15:55:55.487Z,6.70
2019-01-02T15:58:23.044Z,4.65
2019-01-02T16:00:51.053Z,3.58
2019-01-02T16:03:18.918Z,5.05
2019-01-02T16:05:46.959Z,3.22
2019-01-02T16:08:15.692Z,6.15
2019-01-02T16:10:43.355Z,3.33
2019-01-02T16:13:11.059Z,4.62
2019-01-02T16:15:39.720Z,3.87
2019-01-02T16:18:07.550Z,3.52
2019-01-02T16:20:35.112Z,2.42
2019-01-02T16:23:03.253Z,5.17
2019-01-02T16:25:31.035Z,4.65
2019-01-02T16:27:58.758Z,4.50
2019-01-02T16:30:26.954Z,3.17
2019-01-02T16:32:54.583Z,5.33
2019-01-02T16:35:22.285Z,3.33
2019-01-02T16:37:50.109Z,3.65
2019-01-02T16:40:17.893Z,4.15
2019-01-02T16:42:45.699Z,6.30
2019-01-02T16:45:13.376Z,4.08
2019-01-02T16:47:41.406Z,4.62
2019-01-02T16:50:09.991Z,6.37
2019-01-02T16:52:37.832Z,5.80
2019-01-02T16:55:05.742Z,6.50
2019-01-02T16:57:33.914Z,5.25
2019-01-02T17:00:01.686Z,3.87
2019-01-02T17:02:29.482Z,3.77
2019-01-02T17:04:56.989Z,4.45
2019-01-02T17:07:24.593Z,6.08
2019-01-02T17:09:52.323Z,6.40
2019-01-02T17:12:20.035Z,6.78
2019-01-02T17:14:47.821Z,3.85
2019-01-02T17:17:15.521Z,6.03
2019-01-02T17:19:43.031Z,6.00
2019-01-02T17:22:10.838Z,4.37
2019-01-02T17:24:38.295Z,7.55
2019-01-02T17:27:05.966Z,5.20
2019-01-02T17:29:33.998Z,5.25
2019-01-02T17:32:01.713Z,6.67
2019-01-02T17:34:29.436Z,5.42
2019-01-02T17:36:57.196Z,5.78
2019-01-02T17:39:25.454Z,4.85
2019-01-02T17:41:53.032Z,5.53
2019-01-02T17:44:20.867Z,5.72
2019-01-02T17:46:48.530Z,5.70
2019-01-02T17:49:16.283Z,5.25
2019-01-02T17:51:44.481Z,4.45
2019-01-02T17:54:12.183Z,4.90
2019-01-02T17:56:40.218Z,2.90
2019-01-02T17:59:08.180Z,4.00
2019-01-02T18:01:35.831Z,5.67
2019-01-02T18:04:04.131Z,6.47
2019-01-02T18:06:31.941Z,2.72
2019-01-02T18:08:59.651Z,5.35
2019-01-02T18:11:27.371Z,4.72
2019-01-02T18:13:55.485Z,6.42
2019-01-02T18:16:23.251Z,4.75
2019-01-02T18:18:51.134Z,8.83
2019-01-02T18:21:18.737Z,5.70
2019-01-02T18:23:46.350Z,4.65
2019-01-02T18:26:13.915Z,5.90
2019-01-02T18:28:41.634Z,5.95
2019-01-02T18:31:10.478Z,4.00
2019-01-02T18:33:38.082Z,2.42
2019-01-02T18:36:05.542Z,7.08
2019-01-02T18:38:33.831Z,5.62
2019-01-02T18:41:01.482Z,2.87
2019-01-02T18:43:30.173Z,5.05
2019-01-02T18:45:57.945Z,4.75
2019-01-02T18:48:25.542Z,3.08
2019-01-02T18:50:53.041Z,3.08
2019-01-02T18:53:22.160Z,4.90
2019-01-02T18:55:49.929Z,3.55
2019-01-02T18:58:17.617Z,3.80
2019-01-02T19:00:45.319Z,3.70
2019-01-02T19:03:12.884Z,5.77
2019-01-02T19:05:40.586Z,4.03
2019-01-02T19:08:08.050Z,4.55
2019-01-02T19:10:36.512Z,2.08
2019-01-02T19:13:04.731Z,6.47
2019-01-02T19:15:32.607Z,9.23
2019-01-02T19:18:00.209Z,8.85
2019-01-02T19:20:28.075Z,4.50
2019-01-02T19:22:56.050Z,2.47
2019-01-02T19:25:23.852Z,5.83
2019-01-02T19:27:53.827Z,12.30
2019-01-02T19:30:21.922Z,4.28
2019-01-02T19:32:49.859Z,15.28
2019-01-02T19:35:17.995Z,9.08
2019-01-02T19:37:46.103Z,6.62
2019-01-02T19:40:14.694Z,6.92
2019-01-02T19:42:44.816Z,7.62
2019-01-02T19:45:13.079Z,5.65
2019-01-02T19:47:42.878Z,8.18
2019-01-02T19:50:10.871Z,6.35
2019-01-02T19:52:38.690Z,7.55
2019-01-02T19:55:10.074Z,4.45
2019-01-02T19:57:38.212Z,4.28
2019-01-02T20:00:09.821Z,3.30
2019-01-02T20:02:37.973Z,7.00
2019-01-02T20:05:06.039Z,3.95
2019-01-02T20:07:34.222Z,2.85
2019-01-02T20:10:02.116Z,1.70
2019-01-02T20:12:30.869Z,2.98
2019-01-02T20:15:00.649Z,2.95
2019-01-02T20:17:28.608Z,5.05
2019-01-02T20:19:58.290Z,2.60
2019-01-02T20:22:25.879Z,4.22
2019-01-02T20:24:56.508Z,5.62
2019-01-02T20:27:24.006Z,20.08
2019-01-02T20:29:52.068Z,6.33
2019-01-02T20:32:35.255Z,4.08
2019-01-02T20:35:23.009Z,4.03
2019-01-02T20:38:05.032Z,3.42
2019-01-02T20:40:52.334Z,5.60
2019-01-02T20:43:33.248Z,3.45
2019-01-02T20:46:20.644Z,4.97
2019-01-02T20:49:01.434Z,3.27
2019-01-02T20:51:49.255Z,1.90
2019-01-02T20:54:32.910Z,4.35
2019-01-02T20:57:22.899Z,2.87
2019-01-02T21:00:03.485Z,3.17
2019-01-02T21:03:14.882Z,5.08
2019-01-02T21:05:54.877Z,5.05
2019-01-02T21:08:42.476Z,6.47
2019-01-02T21:11:23.379Z,5.08
2019-01-02T21:14:11.068Z,5.17
2019-01-02T21:16:51.763Z,2.67
2019-01-02T21:19:38.984Z,7.03
2019-01-02T21:22:19.379Z,4.53
2019-01-02T21:24:59.255Z,5.40
2019-01-02T21:27:46.434Z,3.60
2019-01-02T21:30:26.690Z,6.05
2019-01-02T21:33:14.156Z,2.50
2019-01-02T21:35:54.743Z,7.15
2019-01-02T21:38:42.143Z,6.47
2019-01-02T21:41:22.443Z,4.42
2019-01-02T21:44:03.469Z,8.95
2019-01-02T21:46:51.628Z,5.28
2019-01-02T21:49:31.621Z,6.53
2019-01-02T21:55:47.013Z,6.60
2019-01-02T21:58:27.237Z,5.83
2019-01-02T22:01:08.732Z,7.10
2019-01-02T22:03:56.051Z,6.72
2019-01-02T22:06:36.585Z,5.00
2019-01-02T22:09:16.905Z,6.75
2019-01-02T22:12:04.383Z,4.47
2019-01-02T22:14:45.007Z,4.22
2019-01-02T22:17:32.292Z,5.15
2019-01-02T22:20:13.181Z,3.47
2019-01-02T22:23:00.410Z,8.28
2019-01-02T22:25:42.965Z,6.92
2019-01-02T22:28:23.537Z,4.22
2019-01-02T22:31:03.518Z,3.17
2019-01-02T22:33:51.204Z,5.20
2019-01-02T22:36:32.080Z,5.10
2019-01-02T22:39:19.796Z,2.62
2019-01-02T22:42:01.624Z,4.10
2019-01-02T22:44:43.507Z,5.17
2019-01-02T22:47:30.891Z,5.28
2019-01-02T22:50:10.965Z,10.23
2019-01-02T22:52:58.345Z,7.35
2019-01-02T22:55:38.839Z,5.83
2019-01-02T22:58:26.241Z,6.65
2019-01-02T23:01:08.935Z,7.83
2019-01-02T23:04:16.335Z,6.60
2019-01-02T23:07:18.194Z,8.48
2019-01-02T23:13:26.729Z,5.37
2019-01-02T23:16:29.680Z,6.40
2019-01-02T23:19:29.778Z,3.72
2019-01-02T23:22:29.500Z,5.53
2019-01-02T23:25:36.441Z,5.12
2019-01-02T23:28:39.073Z,2.30
2019-01-02T23:31:37.555Z,3.27
2019-01-02T23:34:44.260Z,3.85
2019-01-02T23:37:38.056Z,5.80
2019-01-02T23:40:45.284Z,3.45
2019-01-02T23:43:45.422Z,3.92
2019-01-02T23:46:45.659Z,2.77
2019-01-02T23:53:12.082Z,2.87
2019-01-02T23:56:12.533Z,5.12
